sensor_id;sensor_type;location;lat;lon;timestamp;pressure;altitude;pressure_sealevel;temperature;humidity
35952;BME280;22035;51.406;16.194;2023-04-26T00:02:20;99684.12;;;31.08;26.89
35952;BME280;22035;51.406;16.194;2023-04-26T00:04:46;99685.08;;;31.06;26.62
35952;BME280;22035;51.406;16.194;2023-04-26T00:07:11;99684.29;;;31.09;26.65
35952;BME280;22035;51.406;16.194;2023-04-26T00:09:37;99683.64;;;31.05;26.56
35952;BME280;22035;51.406;16.194;2023-04-26T00:12:03;99685.79;;;31.07;26.51
35952;BME280;22035;51.406;16.194;2023-04-26T00:14:28;99684.90;;;31.10;26.60
35952;BME280;22035;51.406;16.194;2023-04-26T00:16:54;99685.59;;;31.04;26.63
35952;BME280;22035;51.406;16.194;2023-04-26T00:19:20;99688.85;;;31.04;26.65
35952;BME280;22035;51.406;16.194;2023-04-26T00:21:45;99684.11;;;31.03;26.52
35952;BME280;22035;51.406;16.194;2023-04-26T00:24:11;99686.55;;;31.02;26.66
35952;BME280;22035;51.406;16.194;2023-04-26T00:26:36;99686.79;;;31.00;27.09
35952;BME280;22035;51.406;16.194;2023-04-26T00:29:03;99686.40;;;31.05;26.66
35952;BME280;22035;51.406;16.194;2023-04-26T00:31:29;99686.99;;;31.02;26.90
35952;BME280;22035;51.406;16.194;2023-04-26T00:33:55;99690.92;;;31.13;26.94
35952;BME280;22035;51.406;16.194;2023-04-26T00:36:20;99691.82;;;31.02;26.80
35952;BME280;22035;51.406;16.194;2023-04-26T00:38:46;99692.66;;;31.01;27.05
35952;BME280;22035;51.406;16.194;2023-04-26T00:41:11;99690.43;;;31.03;26.92
35952;BME280;22035;51.406;16.194;2023-04-26T00:43:37;99692.17;;;31.09;26.78
35952;BME280;22035;51.406;16.194;2023-04-26T00:46:03;99692.23;;;31.03;26.91
35952;BME280;22035;51.406;16.194;2023-04-26T00:48:29;99692.60;;;31.03;26.88
35952;BME280;22035;51.406;16.194;2023-04-26T00:50:55;99693.90;;;31.04;26.83
35952;BME280;22035;51.406;16.194;2023-04-26T00:53:20;99697.31;;;31.09;26.75
35952;BME280;22035;51.406;16.194;2023-04-26T00:55:47;99702.22;;;30.98;26.98
35952;BME280;22035;51.406;16.194;2023-04-26T00:58:12;99702.04;;;30.94;27.13
35952;BME280;22035;51.406;16.194;2023-04-26T01:00:38;99706.94;;;30.93;27.00
35952;BME280;22035;51.406;16.194;2023-04-26T01:03:04;99704.93;;;30.94;27.09
35952;BME280;22035;51.406;16.194;2023-04-26T01:05:29;99707.00;;;30.95;27.01
35952;BME280;22035;51.406;16.194;2023-04-26T01:07:55;99709.14;;;31.00;26.98
35952;BME280;22035;51.406;16.194;2023-04-26T01:10:21;99709.82;;;30.87;27.16
35952;BME280;22035;51.406;16.194;2023-04-26T01:12:46;99709.67;;;30.99;27.10
35952;BME280;22035;51.406;16.194;2023-04-26T01:15:13;99710.51;;;31.03;26.87
35952;BME280;22035;51.406;16.194;2023-04-26T01:17:38;99713.37;;;31.03;26.92
35952;BME280;22035;51.406;16.194;2023-04-26T01:20:05;99715.95;;;31.05;26.84
35952;BME280;22035;51.406;16.194;2023-04-26T01:22:31;99716.50;;;31.01;26.93
35952;BME280;22035;51.406;16.194;2023-04-26T01:24:58;99717.09;;;31.00;27.14
35952;BME280;22035;51.406;16.194;2023-04-26T01:27:23;99718.40;;;30.99;26.86
35952;BME280;22035;51.406;16.194;2023-04-26T01:29:49;99718.61;;;30.96;26.95
35952;BME280;22035;51.406;16.194;2023-04-26T01:32:15;99716.78;;;31.01;26.90
35952;BME280;22035;51.406;16.194;2023-04-26T01:34:40;99718.71;;;30.96;26.89
35952;BME280;22035;51.406;16.194;2023-04-26T01:37:06;99717.42;;;30.97;26.84
35952;BME280;22035;51.406;16.194;2023-04-26T01:39:32;99719.04;;;30.94;27.00
35952;BME280;22035;51.406;16.194;2023-04-26T01:41:57;99720.82;;;30.98;26.83
35952;BME280;22035;51.406;16.194;2023-04-26T01:44:23;99719.02;;;30.93;26.81
35952;BME280;22035;51.406;16.194;2023-04-26T01:46:48;99719.31;;;30.92;26.93
35952;BME280;22035;51.406;16.194;2023-04-26T01:49:14;99715.99;;;30.95;26.93
35952;BME280;22035;51.406;16.194;2023-04-26T01:51:40;99715.55;;;30.89;26.98
35952;BME280;22035;51.406;16.194;2023-04-26T01:54:05;99719.73;;;30.95;26.90
35952;BME280;22035;51.406;16.194;2023-04-26T01:56:31;99722.33;;;30.93;27.09
35952;BME280;22035;51.406;16.194;2023-04-26T01:58:57;99722.60;;;30.98;27.23
35952;BME280;22035;51.406;16.194;2023-04-26T02:01:22;99726.55;;;30.94;27.08
35952;BME280;22035;51.406;16.194;2023-04-26T02:03:48;99726.44;;;30.94;27.05
35952;BME280;22035;51.406;16.194;2023-04-26T02:06:13;99728.46;;;30.92;27.02
35952;BME280;22035;51.406;16.194;2023-04-26T02:08:39;99728.41;;;30.94;27.09
35952;BME280;22035;51.406;16.194;2023-04-26T02:11:05;99728.96;;;30.94;27.04
35952;BME280;22035;51.406;16.194;2023-04-26T02:13:30;99727.95;;;30.94;26.98
35952;BME280;22035;51.406;16.194;2023-04-26T02:15:56;99726.36;;;30.94;26.87
35952;BME280;22035;51.406;16.194;2023-04-26T02:18:21;99728.71;;;30.93;26.95
35952;BME280;22035;51.406;16.194;2023-04-26T02:20:47;99726.16;;;30.88;27.03
35952;BME280;22035;51.406;16.194;2023-04-26T02:23:13;99726.30;;;30.86;26.99
35952;BME280;22035;51.406;16.194;2023-04-26T02:25:39;99723.50;;;30.88;26.96
35952;BME280;22035;51.406;16.194;2023-04-26T02:28:05;99720.82;;;30.87;26.98
35952;BME280;22035;51.406;16.194;2023-04-26T02:30:31;99721.62;;;30.86;26.94
35952;BME280;22035;51.406;16.194;2023-04-26T02:32:57;99720.62;;;30.86;27.06
35952;BME280;22035;51.406;16.194;2023-04-26T02:35:23;99719.81;;;30.91;26.89
35952;BME280;22035;51.406;16.194;2023-04-26T02:37:49;99718.34;;;30.85;27.03
35952;BME280;22035;51.406;16.194;2023-04-26T02:40:14;99716.99;;;30.86;27.03
35952;BME280;22035;51.406;16.194;2023-04-26T02:42:40;99719.97;;;30.93;26.95
35952;BME280;22035;51.406;16.194;2023-04-26T02:45:06;99722.10;;;30.94;26.86
35952;BME280;22035;51.406;16.194;2023-04-26T02:47:32;99721.72;;;30.88;27.05
35952;BME280;22035;51.406;16.194;2023-04-26T02:49:58;99721.74;;;30.93;27.01
35952;BME280;22035;51.406;16.194;2023-04-26T02:52:23;99723.59;;;30.89;27.07
35952;BME280;22035;51.406;16.194;2023-04-26T02:54:49;99726.74;;;30.95;26.93
35952;BME280;22035;51.406;16.194;2023-04-26T02:57:14;99726.63;;;30.87;27.19
35952;BME280;22035;51.406;16.194;2023-04-26T02:59:40;99727.11;;;30.85;27.17
35952;BME280;22035;51.406;16.194;2023-04-26T03:02:06;99729.36;;;30.87;27.04
35952;BME280;22035;51.406;16.194;2023-04-26T03:04:32;99731.36;;;30.93;26.99
35952;BME280;22035;51.406;16.194;2023-04-26T03:06:58;99732.03;;;30.81;27.24
35952;BME280;22035;51.406;16.194;2023-04-26T03:09:23;99732.46;;;30.86;27.06
35952;BME280;22035;51.406;16.194;2023-04-26T03:11:50;99727.96;;;30.79;27.16
35952;BME280;22035;51.406;16.194;2023-04-26T03:14:16;99728.51;;;30.78;27.27
35952;BME280;22035;51.406;16.194;2023-04-26T03:16:42;99729.31;;;30.84;27.13
35952;BME280;22035;51.406;16.194;2023-04-26T03:19:08;99733.05;;;30.85;26.97
35952;BME280;22035;51.406;16.194;2023-04-26T03:21:34;99734.34;;;30.80;27.12
35952;BME280;22035;51.406;16.194;2023-04-26T03:24:00;99735.13;;;30.81;27.19
35952;BME280;22035;51.406;16.194;2023-04-26T03:26:25;99738.22;;;30.83;27.18
35952;BME280;22035;51.406;16.194;2023-04-26T03:28:51;99738.58;;;30.81;27.02
35952;BME280;22035;51.406;16.194;2023-04-26T03:31:16;99742.82;;;30.81;27.00
35952;BME280;22035;51.406;16.194;2023-04-26T03:33:42;99744.40;;;30.71;27.15
35952;BME280;22035;51.406;16.194;2023-04-26T03:36:08;99749.25;;;30.72;27.10
35952;BME280;22035;51.406;16.194;2023-04-26T03:38:33;99753.99;;;30.78;27.00
35952;BME280;22035;51.406;16.194;2023-04-26T03:40:59;99752.20;;;30.70;26.98
35952;BME280;22035;51.406;16.194;2023-04-26T03:43:24;99756.64;;;30.69;27.04
35952;BME280;22035;51.406;16.194;2023-04-26T03:45:50;99752.27;;;30.67;27.06
35952;BME280;22035;51.406;16.194;2023-04-26T03:48:15;99760.46;;;30.65;26.97
35952;BME280;22035;51.406;16.194;2023-04-26T03:50:41;99765.44;;;30.68;27.05
35952;BME280;22035;51.406;16.194;2023-04-26T03:53:07;99772.18;;;30.75;26.98
35952;BME280;22035;51.406;16.194;2023-04-26T03:55:32;99775.06;;;30.71;27.13
35952;BME280;22035;51.406;16.194;2023-04-26T03:57:58;99776.80;;;30.77;27.04
35952;BME280;22035;51.406;16.194;2023-04-26T04:00:23;99777.11;;;30.74;26.94
35952;BME280;22035;51.406;16.194;2023-04-26T04:02:49;99778.75;;;30.70;27.00
35952;BME280;22035;51.406;16.194;2023-04-26T04:05:15;99785.42;;;30.83;26.83
35952;BME280;22035;51.406;16.194;2023-04-26T04:07:40;99784.22;;;30.66;26.87
35952;BME280;22035;51.406;16.194;2023-04-26T04:10:06;99788.47;;;30.67;26.91
35952;BME280;22035;51.406;16.194;2023-04-26T04:12:32;99789.44;;;30.66;26.64
35952;BME280;22035;51.406;16.194;2023-04-26T04:14:58;99794.46;;;30.60;26.64
35952;BME280;22035;51.406;16.194;2023-04-26T04:17:23;99793.68;;;30.58;26.62
35952;BME280;22035;51.406;16.194;2023-04-26T04:19:49;99796.30;;;30.57;26.58
35952;BME280;22035;51.406;16.194;2023-04-26T04:22:14;99801.64;;;30.48;26.63
35952;BME280;22035;51.406;16.194;2023-04-26T04:24:40;99799.02;;;30.60;26.40
35952;BME280;22035;51.406;16.194;2023-04-26T04:27:05;99801.45;;;30.55;26.38
35952;BME280;22035;51.406;16.194;2023-04-26T04:29:31;99801.64;;;30.53;26.33
35952;BME280;22035;51.406;16.194;2023-04-26T04:31:57;99806.97;;;30.50;26.17
35952;BME280;22035;51.406;16.194;2023-04-26T04:34:22;99808.31;;;30.59;26.09
35952;BME280;22035;51.406;16.194;2023-04-26T04:36:48;99814.18;;;30.72;26.09
35952;BME280;22035;51.406;16.194;2023-04-26T04:39:13;99808.65;;;30.64;26.19
35952;BME280;22035;51.406;16.194;2023-04-26T04:41:39;99811.40;;;30.63;25.95
35952;BME280;22035;51.406;16.194;2023-04-26T04:44:05;99812.06;;;30.81;25.70
35952;BME280;22035;51.406;16.194;2023-04-26T04:46:30;99811.61;;;30.73;25.76
35952;BME280;22035;51.406;16.194;2023-04-26T04:48:56;99813.59;;;30.77;25.76
35952;BME280;22035;51.406;16.194;2023-04-26T04:51:21;99819.43;;;30.84;25.65
35952;BME280;22035;51.406;16.194;2023-04-26T04:53:47;99819.36;;;30.81;25.74
35952;BME280;22035;51.406;16.194;2023-04-26T04:56:13;99821.03;;;30.73;25.79
35952;BME280;22035;51.406;16.194;2023-04-26T04:58:38;99820.64;;;30.80;25.72
35952;BME280;22035;51.406;16.194;2023-04-26T05:01:04;99821.01;;;30.81;25.68
35952;BME280;22035;51.406;16.194;2023-04-26T05:03:29;99826.87;;;30.70;25.83
35952;BME280;22035;51.406;16.194;2023-04-26T05:05:55;99826.05;;;30.68;25.88
35952;BME280;22035;51.406;16.194;2023-04-26T05:08:21;99827.23;;;30.65;25.90
35952;BME280;22035;51.406;16.194;2023-04-26T05:10:46;99831.62;;;30.79;25.92
35952;BME280;22035;51.406;16.194;2023-04-26T05:13:12;99834.13;;;30.88;25.42
35952;BME280;22035;51.406;16.194;2023-04-26T05:15:37;99832.28;;;30.83;25.33
35952;BME280;22035;51.406;16.194;2023-04-26T05:18:03;99835.58;;;30.99;25.16
35952;BME280;22035;51.406;16.194;2023-04-26T05:20:28;99832.55;;;30.74;25.47
35952;BME280;22035;51.406;16.194;2023-04-26T05:22:54;99836.57;;;30.77;25.46
35952;BME280;22035;51.406;16.194;2023-04-26T05:25:20;99834.59;;;30.78;25.44
35952;BME280;22035;51.406;16.194;2023-04-26T05:27:45;99836.42;;;30.82;25.38
35952;BME280;22035;51.406;16.194;2023-04-26T05:30:11;99839.51;;;30.82;25.37
35952;BME280;22035;51.406;16.194;2023-04-26T05:32:37;99835.55;;;30.88;25.28
35952;BME280;22035;51.406;16.194;2023-04-26T05:35:03;99841.46;;;30.91;25.21
35952;BME280;22035;51.406;16.194;2023-04-26T05:37:28;99836.98;;;30.96;25.12
35952;BME280;22035;51.406;16.194;2023-04-26T05:39:54;99843.86;;;31.03;25.03
35952;BME280;22035;51.406;16.194;2023-04-26T05:42:20;99845.64;;;31.07;24.94
35952;BME280;22035;51.406;16.194;2023-04-26T05:44:45;99849.23;;;31.09;24.91
35952;BME280;22035;51.406;16.194;2023-04-26T05:47:11;99851.07;;;31.05;24.94
35952;BME280;22035;51.406;16.194;2023-04-26T05:49:36;99851.66;;;31.14;24.79
35952;BME280;22035;51.406;16.194;2023-04-26T05:52:02;99850.29;;;31.17;24.73
35952;BME280;22035;51.406;16.194;2023-04-26T05:54:28;99853.15;;;31.21;24.72
35952;BME280;22035;51.406;16.194;2023-04-26T05:56:53;99854.25;;;31.19;24.68
35952;BME280;22035;51.406;16.194;2023-04-26T05:59:19;99851.82;;;31.21;24.67
35952;BME280;22035;51.406;16.194;2023-04-26T06:01:44;99856.78;;;31.20;24.64
35952;BME280;22035;51.406;16.194;2023-04-26T06:04:10;99857.58;;;31.22;24.57
35952;BME280;22035;51.406;16.194;2023-04-26T06:06:35;99858.87;;;31.31;24.46
35952;BME280;22035;51.406;16.194;2023-04-26T06:09:01;99862.81;;;31.31;24.48
35952;BME280;22035;51.406;16.194;2023-04-26T06:11:27;99857.65;;;31.31;24.47
35952;BME280;22035;51.406;16.194;2023-04-26T06:13:52;99860.75;;;31.29;24.37
35952;BME280;22035;51.406;16.194;2023-04-26T06:16:18;99855.68;;;31.34;24.41
35952;BME280;22035;51.406;16.194;2023-04-26T06:18:44;99858.88;;;31.36;24.32
35952;BME280;22035;51.406;16.194;2023-04-26T06:21:09;99863.47;;;31.28;24.39
35952;BME280;22035;51.406;16.194;2023-04-26T06:23:35;99857.94;;;31.35;24.31
35952;BME280;22035;51.406;16.194;2023-04-26T06:26:00;99863.38;;;31.35;24.26
35952;BME280;22035;51.406;16.194;2023-04-26T06:28:26;99864.70;;;31.38;24.22
35952;BME280;22035;51.406;16.194;2023-04-26T06:30:52;99864.37;;;31.41;24.19
35952;BME280;22035;51.406;16.194;2023-04-26T06:33:17;99865.37;;;31.40;24.18
35952;BME280;22035;51.406;16.194;2023-04-26T06:35:43;99868.75;;;31.34;24.19
35952;BME280;22035;51.406;16.194;2023-04-26T06:38:09;99862.02;;;31.36;24.13
35952;BME280;22035;51.406;16.194;2023-04-26T06:40:34;99858.41;;;31.35;24.16
35952;BME280;22035;51.406;16.194;2023-04-26T06:43:00;99858.24;;;31.38;24.04
35952;BME280;22035;51.406;16.194;2023-04-26T06:45:25;99861.76;;;31.44;24.01
35952;BME280;22035;51.406;16.194;2023-04-26T06:47:51;99855.36;;;31.35;24.05
35952;BME280;22035;51.406;16.194;2023-04-26T06:50:17;99858.26;;;31.35;24.03
35952;BME280;22035;51.406;16.194;2023-04-26T06:52:42;99861.32;;;31.28;24.00
35952;BME280;22035;51.406;16.194;2023-04-26T06:55:09;99860.65;;;31.20;23.98
35952;BME280;22035;51.406;16.194;2023-04-26T06:57:34;99850.89;;;31.36;23.88
35952;BME280;22035;51.406;16.194;2023-04-26T07:00:00;99866.91;;;31.30;24.00
35952;BME280;22035;51.406;16.194;2023-04-26T07:02:26;99861.26;;;31.25;24.06
35952;BME280;22035;51.406;16.194;2023-04-26T07:04:51;99869.34;;;31.33;23.81
35952;BME280;22035;51.406;16.194;2023-04-26T07:07:17;99869.18;;;31.27;23.82
35952;BME280;22035;51.406;16.194;2023-04-26T07:09:43;99885.34;;;31.22;23.92
35952;BME280;22035;51.406;16.194;2023-04-26T07:12:10;99874.06;;;31.18;23.87
35952;BME280;22035;51.406;16.194;2023-04-26T07:14:35;99874.22;;;31.15;23.77
35952;BME280;22035;51.406;16.194;2023-04-26T07:17:01;99878.47;;;31.33;23.67
35952;BME280;22035;51.406;16.194;2023-04-26T07:19:26;99867.85;;;31.21;23.68
35952;BME280;22035;51.406;16.194;2023-04-26T07:21:52;99871.43;;;31.18;23.68
35952;BME280;22035;51.406;16.194;2023-04-26T07:24:18;99876.10;;;31.31;23.53
35952;BME280;22035;51.406;16.194;2023-04-26T07:26:43;99875.91;;;31.29;23.47
35952;BME280;22035;51.406;16.194;2023-04-26T07:29:09;99874.08;;;31.20;23.51
35952;BME280;22035;51.406;16.194;2023-04-26T07:31:34;99881.51;;;31.19;23.50
35952;BME280;22035;51.406;16.194;2023-04-26T07:34:00;99880.33;;;31.22;23.53
35952;BME280;22035;51.406;16.194;2023-04-26T07:36:25;99880.22;;;31.03;23.69
35952;BME280;22035;51.406;16.194;2023-04-26T07:38:51;99879.09;;;31.02;23.67
35952;BME280;22035;51.406;16.194;2023-04-26T07:41:17;99884.94;;;31.00;23.65
35952;BME280;22035;51.406;16.194;2023-04-26T07:43:42;99885.37;;;31.00;23.54
35952;BME280;22035;51.406;16.194;2023-04-26T07:46:08;99879.66;;;30.91;23.60
35952;BME280;22035;51.406;16.194;2023-04-26T07:48:33;99885.14;;;30.87;23.66
35952;BME280;22035;51.406;16.194;2023-04-26T07:51:06;99875.43;;;30.85;23.60
35952;BME280;22035;51.406;16.194;2023-04-26T07:53:31;99876.77;;;30.90;23.51
35952;BME280;22035;51.406;16.194;2023-04-26T07:55:57;99885.98;;;30.90;23.43
35952;BME280;22035;51.406;16.194;2023-04-26T07:58:23;99889.20;;;30.86;23.53
35952;BME280;22035;51.406;16.194;2023-04-26T08:00:48;99889.98;;;30.91;23.46
35952;BME280;22035;51.406;16.194;2023-04-26T08:03:14;99884.83;;;30.81;23.42
35952;BME280;22035;51.406;16.194;2023-04-26T08:05:40;99887.46;;;30.84;23.43
35952;BME280;22035;51.406;16.194;2023-04-26T08:08:05;99883.89;;;30.87;23.40
35952;BME280;22035;51.406;16.194;2023-04-26T08:10:31;99882.80;;;30.79;23.40
35952;BME280;22035;51.406;16.194;2023-04-26T08:12:56;99887.85;;;30.87;23.33
35952;BME280;22035;51.406;16.194;2023-04-26T08:15:22;99883.01;;;30.74;23.50
35952;BME280;22035;51.406;16.194;2023-04-26T08:17:48;99885.96;;;30.75;23.46
35952;BME280;22035;51.406;16.194;2023-04-26T08:20:14;99894.35;;;30.79;23.37
35952;BME280;22035;51.406;16.194;2023-04-26T08:22:39;99880.35;;;30.72;23.40
35952;BME280;22035;51.406;16.194;2023-04-26T08:25:05;99891.21;;;30.68;23.49
35952;BME280;22035;51.406;16.194;2023-04-26T08:27:31;99882.39;;;30.75;23.42
35952;BME280;22035;51.406;16.194;2023-04-26T08:29:57;99886.82;;;30.75;23.34
35952;BME280;22035;51.406;16.194;2023-04-26T08:32:22;99889.25;;;30.77;23.34
35952;BME280;22035;51.406;16.194;2023-04-26T08:34:48;99888.00;;;30.78;23.30
35952;BME280;22035;51.406;16.194;2023-04-26T08:37:13;99884.22;;;30.81;23.21
35952;BME280;22035;51.406;16.194;2023-04-26T08:39:39;99885.45;;;30.76;23.19
35952;BME280;22035;51.406;16.194;2023-04-26T08:42:13;99887.78;;;30.69;23.25
35952;BME280;22035;51.406;16.194;2023-04-26T08:44:40;99890.26;;;30.75;23.15
35952;BME280;22035;51.406;16.194;2023-04-26T08:47:12;99892.30;;;30.79;23.16
35952;BME280;22035;51.406;16.194;2023-04-26T08:49:40;99896.00;;;30.90;22.95
35952;BME280;22035;51.406;16.194;2023-04-26T08:52:08;99894.82;;;30.77;23.06
35952;BME280;22035;51.406;16.194;2023-04-26T08:54:35;99895.75;;;30.87;22.92
35952;BME280;22035;51.406;16.194;2023-04-26T08:57:01;99900.85;;;30.78;23.03
35952;BME280;22035;51.406;16.194;2023-04-26T08:59:28;99903.44;;;30.73;23.10
35952;BME280;22035;51.406;16.194;2023-04-26T09:01:55;99897.99;;;30.78;22.98
35952;BME280;22035;51.406;16.194;2023-04-26T09:04:20;99902.69;;;30.79;22.91
35952;BME280;22035;51.406;16.194;2023-04-26T09:06:47;99905.35;;;30.78;22.85
35952;BME280;22035;51.406;16.194;2023-04-26T09:09:17;99907.27;;;30.72;23.02
35952;BME280;22035;51.406;16.194;2023-04-26T09:11:52;99908.23;;;30.69;23.00
35952;BME280;22035;51.406;16.194;2023-04-26T09:14:17;99909.80;;;30.75;22.96
35952;BME280;22035;51.406;16.194;2023-04-26T09:16:43;99911.38;;;30.72;22.99
35952;BME280;22035;51.406;16.194;2023-04-26T09:19:09;99905.45;;;30.72;22.95
35952;BME280;22035;51.406;16.194;2023-04-26T09:21:41;99897.99;;;30.72;22.91
35952;BME280;22035;51.406;16.194;2023-04-26T09:24:07;99899.34;;;30.71;22.94
35952;BME280;22035;51.406;16.194;2023-04-26T09:26:33;99902.77;;;30.69;23.04
35952;BME280;22035;51.406;16.194;2023-04-26T09:29:15;99896.86;;;30.66;23.02
35952;BME280;22035;51.406;16.194;2023-04-26T09:31:43;99897.27;;;30.63;22.97
35952;BME280;22035;51.406;16.194;2023-04-26T09:34:10;99905.37;;;30.71;22.85
35952;BME280;22035;51.406;16.194;2023-04-26T09:36:47;99897.93;;;30.73;22.78
35952;BME280;22035;51.406;16.194;2023-04-26T09:39:14;99894.46;;;30.65;22.87
35952;BME280;22035;51.406;16.194;2023-04-26T09:41:42;99902.59;;;30.60;22.91
35952;BME280;22035;51.406;16.194;2023-04-26T09:44:19;99899.40;;;30.60;22.85
35952;BME280;22035;51.406;16.194;2023-04-26T09:46:56;99897.57;;;30.58;22.93
35952;BME280;22035;51.406;16.194;2023-04-26T09:49:22;99906.33;;;30.64;22.75
35952;BME280;22035;51.406;16.194;2023-04-26T09:51:59;99903.02;;;30.61;22.76
35952;BME280;22035;51.406;16.194;2023-04-26T09:54:37;99906.70;;;30.58;22.80
35952;BME280;22035;51.406;16.194;2023-04-26T09:57:03;99898.19;;;30.57;22.87
35952;BME280;22035;51.406;16.194;2023-04-26T09:59:38;99892.39;;;30.45;22.97
35952;BME280;22035;51.406;16.194;2023-04-26T10:02:09;99898.87;;;30.55;22.73
35952;BME280;22035;51.406;16.194;2023-04-26T10:04:35;99902.38;;;30.51;22.78
35952;BME280;22035;51.406;16.194;2023-04-26T10:07:01;99903.96;;;30.48;22.78
35952;BME280;22035;51.406;16.194;2023-04-26T10:09:26;99902.93;;;30.45;22.81
35952;BME280;22035;51.406;16.194;2023-04-26T10:11:52;99899.08;;;30.60;22.64
35952;BME280;22035;51.406;16.194;2023-04-26T10:14:18;99898.21;;;30.54;22.64
35952;BME280;22035;51.406;16.194;2023-04-26T10:16:44;99893.53;;;30.52;22.68
35952;BME280;22035;51.406;16.194;2023-04-26T10:19:10;99896.31;;;30.40;22.70
35952;BME280;22035;51.406;16.194;2023-04-26T10:21:37;99887.34;;;30.45;22.67
35952;BME280;22035;51.406;16.194;2023-04-26T10:24:05;99890.10;;;30.44;22.61
35952;BME280;22035;51.406;16.194;2023-04-26T10:26:47;99891.72;;;30.42;22.59
35952;BME280;22035;51.406;16.194;2023-04-26T10:29:13;99895.84;;;30.51;22.48
35952;BME280;22035;51.406;16.194;2023-04-26T10:32:10;99899.79;;;30.37;22.68
35952;BME280;22035;51.406;16.194;2023-04-26T10:34:36;99892.02;;;30.49;22.57
35952;BME280;22035;51.406;16.194;2023-04-26T10:37:06;99899.92;;;30.32;22.63
35952;BME280;22035;51.406;16.194;2023-04-26T10:39:31;99898.92;;;30.36;22.51
35952;BME280;22035;51.406;16.194;2023-04-26T10:42:16;99900.52;;;30.40;22.50
35952;BME280;22035;51.406;16.194;2023-04-26T10:44:42;99903.16;;;30.40;22.45
35952;BME280;22035;51.406;16.194;2023-04-26T10:47:21;99904.64;;;30.40;22.39
35952;BME280;22035;51.406;16.194;2023-04-26T10:49:47;99892.02;;;30.39;22.40
35952;BME280;22035;51.406;16.194;2023-04-26T10:52:13;99899.94;;;30.36;22.42
35952;BME280;22035;51.406;16.194;2023-04-26T10:54:56;99905.75;;;30.36;22.42
35952;BME280;22035;51.406;16.194;2023-04-26T10:57:45;99902.17;;;30.42;22.44
35952;BME280;22035;51.406;16.194;2023-04-26T11:00:28;99911.04;;;30.33;22.43
35952;BME280;22035;51.406;16.194;2023-04-26T11:02:56;99910.82;;;30.49;22.19
35952;BME280;22035;51.406;16.194;2023-04-26T11:05:54;99908.87;;;30.57;22.29
35952;BME280;22035;51.406;16.194;2023-04-26T11:08:23;99917.95;;;30.40;22.72
35952;BME280;22035;51.406;16.194;2023-04-26T11:10:51;99911.69;;;30.49;22.69
35952;BME280;22035;51.406;16.194;2023-04-26T11:13:17;99918.80;;;30.44;22.86
35952;BME280;22035;51.406;16.194;2023-04-26T11:15:42;99916.05;;;30.45;22.91
35952;BME280;22035;51.406;16.194;2023-04-26T11:18:08;99919.33;;;30.49;22.96
35952;BME280;22035;51.406;16.194;2023-04-26T11:20:34;99917.83;;;30.52;23.06
35952;BME280;22035;51.406;16.194;2023-04-26T11:22:59;99925.07;;;30.48;22.76
35952;BME280;22035;51.406;16.194;2023-04-26T11:25:25;99925.07;;;30.55;22.84
35952;BME280;22035;51.406;16.194;2023-04-26T11:27:56;99927.44;;;30.57;22.93
35952;BME280;22035;51.406;16.194;2023-04-26T11:30:21;99920.68;;;30.53;23.12
35952;BME280;22035;51.406;16.194;2023-04-26T11:32:47;99915.75;;;30.56;23.12
35952;BME280;22035;51.406;16.194;2023-04-26T11:35:13;99920.33;;;30.58;22.99
35952;BME280;22035;51.406;16.194;2023-04-26T11:37:39;99917.32;;;30.60;23.00
35952;BME280;22035;51.406;16.194;2023-04-26T11:40:08;99926.20;;;30.70;22.99
35952;BME280;22035;51.406;16.194;2023-04-26T11:42:34;99924.12;;;30.59;23.05
35952;BME280;22035;51.406;16.194;2023-04-26T11:45:00;99921.58;;;30.57;23.10
35952;BME280;22035;51.406;16.194;2023-04-26T11:47:25;99923.56;;;30.58;23.09
35952;BME280;22035;51.406;16.194;2023-04-26T11:49:52;99918.70;;;30.60;23.16
35952;BME280;22035;51.406;16.194;2023-04-26T11:52:17;99923.16;;;30.60;23.27
35952;BME280;22035;51.406;16.194;2023-04-26T11:54:43;99921.49;;;30.65;23.27
35952;BME280;22035;51.406;16.194;2023-04-26T11:57:12;99924.15;;;30.53;23.46
35952;BME280;22035;51.406;16.194;2023-04-26T11:59:38;99917.15;;;30.67;23.25
35952;BME280;22035;51.406;16.194;2023-04-26T12:02:05;99920.15;;;30.57;23.45
35952;BME280;22035;51.406;16.194;2023-04-26T12:04:31;99906.20;;;30.59;23.57
35952;BME280;22035;51.406;16.194;2023-04-26T12:06:57;99939.26;;;30.49;23.70
35952;BME280;22035;51.406;16.194;2023-04-26T12:09:23;99947.23;;;30.55;23.69
35952;BME280;22035;51.406;16.194;2023-04-26T12:11:53;99947.81;;;30.53;23.74
35952;BME280;22035;51.406;16.194;2023-04-26T12:14:21;99952.06;;;30.60;23.75
35952;BME280;22035;51.406;16.194;2023-04-26T12:16:46;99950.59;;;30.56;23.77
35952;BME280;22035;51.406;16.194;2023-04-26T12:19:12;99957.37;;;30.62;23.72
35952;BME280;22035;51.406;16.194;2023-04-26T12:21:40;99956.04;;;30.57;23.85
35952;BME280;22035;51.406;16.194;2023-04-26T12:24:06;99953.90;;;30.46;23.60
35952;BME280;22035;51.406;16.194;2023-04-26T12:26:41;99955.72;;;30.50;23.52
35952;BME280;22035;51.406;16.194;2023-04-26T12:29:06;99953.97;;;30.49;23.46
35952;BME280;22035;51.406;16.194;2023-04-26T12:31:32;99952.62;;;30.44;23.42
35952;BME280;22035;51.406;16.194;2023-04-26T12:33:58;99951.17;;;30.46;23.34
35952;BME280;22035;51.406;16.194;2023-04-26T12:36:23;99949.25;;;30.50;23.23
35952;BME280;22035;51.406;16.194;2023-04-26T12:38:49;99945.31;;;30.58;23.15
35952;BME280;22035;51.406;16.194;2023-04-26T12:41:14;99943.57;;;30.50;23.27
35952;BME280;22035;51.406;16.194;2023-04-26T12:43:40;99942.13;;;30.52;23.23
35952;BME280;22035;51.406;16.194;2023-04-26T12:46:06;99950.80;;;30.62;23.49
35952;BME280;22035;51.406;16.194;2023-04-26T12:48:31;99948.74;;;30.45;23.44